Time;durP1;ratioP1;P1;durP2;ratioP2;P2;SDS_P1;SDS_P2;PMS_P1;PMS_P2;Temp;Humidity;BMP_temperature;BMP_pressure;BME280_temperature;BME280_humidity;BME280_pressure;Samples;Min_cycle;Max_cycle;Signal;HPM_P1;HPM_P2
2022/02/17 00:02:13;;;;;;;8.80;7.90;;;7.70;98.50;;;;;;6271146;28;20497;-62
2022/02/17 00:05:16;;;;;;;7.40;6.33;;;7.70;98.50;;;;;;6274896;28;20976;-62
2022/02/17 00:08:20;;;;;;;10.00;6.83;;;7.60;98.60;;;;;;6275539;28;20478;-62
2022/02/17 00:11:24;;;;;;;7.93;6.87;;;7.60;98.80;;;;;;6274586;28;20821;-63
2022/02/17 00:14:27;;;;;;;7.40;6.70;;;7.60;99.00;;;;;;6274987;28;20852;-63
2022/02/17 00:17:30;;;;;;;6.93;6.33;;;7.60;99.00;;;;;;6274943;28;20476;-63
2022/02/17 00:20:34;;;;;;;7.03;6.00;;;7.70;99.10;;;;;;6276090;28;20482;-63
2022/02/17 00:23:37;;;;;;;7.30;5.90;;;7.70;99.10;;;;;;6277656;28;20970;-64
2022/02/17 00:26:41;;;;;;;7.20;5.80;;;7.70;99.20;;;;;;6276747;28;20482;-64
2022/02/17 00:29:44;;;;;;;7.53;6.27;;;7.70;99.10;;;;;;6274848;28;20472;-63
2022/02/17 00:32:48;;;;;;;6.80;6.00;;;7.60;99.30;;;;;;6274825;28;20480;-63
2022/02/17 00:35:51;;;;;;;6.77;5.80;;;7.70;99.40;;;;;;6275081;28;20472;-63
2022/02/17 00:38:54;;;;;;;8.87;5.70;;;7.70;99.30;;;;;;6275061;28;20475;-63
2022/02/17 00:42:01;;;;;;;5.40;4.73;;;7.70;99.30;;;;;;6274754;28;20475;-63
2022/02/17 00:45:05;;;;;;;7.10;6.40;;;7.70;99.20;;;;;;6274835;28;20471;-63
2022/02/17 00:48:09;;;;;;;7.13;5.20;;;7.70;99.30;;;;;;6274743;28;20919;-63
2022/02/17 00:51:12;;;;;;;6.57;5.50;;;7.70;99.30;;;;;;6274788;28;20483;-63
2022/02/17 00:54:16;;;;;;;5.20;4.70;;;7.70;99.20;;;;;;6274724;28;20492;-63
2022/02/17 00:57:21;;;;;;;5.60;5.20;;;7.80;99.20;;;;;;6274956;28;20524;-63
2022/02/17 01:00:24;;;;;;;6.50;5.27;;;7.80;99.20;;;;;;6274340;28;21088;-63
2022/02/17 01:03:27;;;;;;;7.70;6.00;;;7.80;99.00;;;;;;6275054;28;20481;-63
2022/02/17 01:06:30;;;;;;;7.27;5.37;;;7.80;98.90;;;;;;6276174;28;20475;-63
2022/02/17 01:09:33;;;;;;;4.73;4.33;;;7.80;99.00;;;;;;6274572;28;20794;-63
2022/02/17 01:12:37;;;;;;;5.90;5.30;;;7.90;99.00;;;;;;6275325;28;21004;-63
2022/02/17 01:15:41;;;;;;;5.77;5.37;;;7.80;98.90;;;;;;6279034;28;20482;-62
2022/02/17 01:18:44;;;;;;;5.93;4.47;;;7.90;98.90;;;;;;6278927;28;20481;-62
2022/02/17 01:21:48;;;;;;;7.00;5.07;;;7.90;98.80;;;;;;6280807;28;20998;-63
2022/02/17 01:24:51;;;;;;;5.50;4.97;;;7.90;98.80;;;;;;6279013;28;20497;-63
2022/02/17 01:27:57;;;;;;;5.47;4.97;;;7.90;98.70;;;;;;6278776;28;20482;-63
2022/02/17 01:31:00;;;;;;;6.53;5.23;;;8.00;98.80;;;;;;6278694;28;20974;-63
2022/02/17 01:34:03;;;;;;;5.87;4.73;;;8.00;98.70;;;;;;6278820;28;20471;-63
2022/02/17 01:37:06;;;;;;;5.80;4.20;;;7.90;98.70;;;;;;6278610;28;20471;-63
2022/02/17 01:40:11;;;;;;;10.43;5.00;;;8.00;98.80;;;;;;6279362;28;20474;-63
2022/02/17 01:43:16;;;;;;;6.30;5.20;;;8.00;98.90;;;;;;6280100;28;20525;-63
2022/02/17 01:46:33;;;;;;;5.70;4.53;;;7.90;98.70;;;;;;6280125;28;20993;-64
2022/02/17 01:49:36;;;;;;;6.03;5.47;;;7.80;99.00;;;;;;6279886;28;20496;-63
2022/02/17 01:52:40;;;;;;;5.07;4.63;;;7.90;99.10;;;;;;6300980;28;20482;-64
2022/02/17 01:55:46;;;;;;;6.23;5.63;;;7.90;99.10;;;;;;6277843;28;20447;-63
2022/02/17 01:58:53;;;;;;;4.50;3.93;;;8.00;99.10;;;;;;6278575;28;20502;-63
2022/02/17 02:01:56;;;;;;;6.33;4.67;;;8.00;98.80;;;;;;6278080;28;20487;-63
2022/02/17 02:04:59;;;;;;;5.20;4.70;;;7.90;98.90;;;;;;6279484;28;20467;-63
2022/02/17 02:08:04;;;;;;;5.33;4.23;;;7.90;98.90;;;;;;6273331;28;20472;-63
2022/02/17 02:11:11;;;;;;;6.17;4.43;;;7.90;99.00;;;;;;6279431;28;20602;-63
2022/02/17 02:14:17;;;;;;;5.93;4.30;;;7.90;99.10;;;;;;6277681;28;20807;-63
2022/02/17 02:17:22;;;;;;;6.77;6.03;;;8.00;99.20;;;;;;6278272;28;20476;-64
2022/02/17 02:20:26;;;;;;;8.73;7.87;;;7.90;99.20;;;;;;6279045;28;20471;-64
2022/02/17 02:23:29;;;;;;;8.97;8.07;;;7.90;99.40;;;;;;6278895;28;20479;-64
2022/02/17 02:26:32;;;;;;;11.57;8.63;;;7.80;99.60;;;;;;6278964;28;20466;-64
2022/02/17 02:29:35;;;;;;;9.90;8.90;;;7.70;99.60;;;;;;6278318;28;20476;-64
2022/02/17 02:32:39;;;;;;;10.60;9.07;;;7.70;99.80;;;;;;6277570;28;20471;-63
2022/02/17 02:35:43;;;;;;;10.43;9.07;;;7.60;99.90;;;;;;6277299;28;20550;-63
2022/02/17 02:38:47;;;;;;;10.83;9.73;;;7.50;99.90;;;;;;6277013;28;20513;-63
2022/02/17 02:41:50;;;;;;;10.50;9.00;;;7.50;99.90;;;;;;6277259;28;20479;-63
2022/02/17 02:44:53;;;;;;;9.97;8.90;;;7.40;99.90;;;;;;6276698;28;20992;-63
2022/02/17 02:47:56;;;;;;;11.53;9.00;;;7.30;99.90;;;;;;6276720;28;20548;-63
2022/02/17 02:51:01;;;;;;;12.53;9.87;;;7.20;99.90;;;;;;6276893;28;20524;-62
2022/02/17 02:54:04;;;;;;;10.23;8.70;;;7.10;99.90;;;;;;6277456;28;20981;-63
2022/02/17 02:57:07;;;;;;;13.60;9.10;;;7.10;99.90;;;;;;6277072;28;20470;-63
2022/02/17 03:00:11;;;;;;;9.97;8.43;;;7.10;99.90;;;;;;6276411;28;20466;-63
2022/02/17 03:03:14;;;;;;;10.23;8.77;;;7.10;99.90;;;;;;6276340;28;20966;-63
2022/02/17 03:06:19;;;;;;;12.20;9.97;;;7.10;99.90;;;;;;6276232;28;20589;-63
2022/02/17 03:09:23;;;;;;;12.47;9.00;;;7.10;99.90;;;;;;6276434;28;20846;-63
2022/02/17 03:12:26;;;;;;;12.17;9.50;;;7.10;99.90;;;;;;6271279;28;20824;-63
2022/02/17 03:15:29;;;;;;;13.80;8.80;;;7.10;99.90;;;;;;6276145;28;20491;-63
2022/02/17 03:18:32;;;;;;;10.23;8.73;;;7.10;99.90;;;;;;6278365;28;20467;-64
2022/02/17 03:21:37;;;;;;;10.50;8.67;;;7.10;99.90;;;;;;6276389;28;20490;-64
2022/02/17 03:24:40;;;;;;;11.60;9.00;;;7.00;99.90;;;;;;6276960;28;20953;-63
2022/02/17 03:27:43;;;;;;;14.93;8.50;;;7.10;99.90;;;;;;6276934;28;20785;-64
2022/02/17 03:30:46;;;;;;;9.70;8.37;;;7.10;99.90;;;;;;6277160;28;20493;-63
2022/02/17 03:33:49;;;;;;;9.60;8.50;;;7.30;99.90;;;;;;6276979;28;20483;-63
2022/02/17 03:36:54;;;;;;;11.93;8.77;;;7.30;99.90;;;;;;6277033;28;20781;-63
2022/02/17 03:39:57;;;;;;;10.20;8.90;;;7.30;99.90;;;;;;6278419;28;20486;-63
2022/02/17 03:43:00;;;;;;;12.37;9.53;;;7.30;99.90;;;;;;6277715;28;20982;-64
2022/02/17 03:46:04;;;;;;;9.73;7.87;;;7.20;99.90;;;;;;6279044;28;20470;-64
2022/02/17 03:49:07;;;;;;;10.10;8.43;;;7.20;99.90;;;;;;6280349;28;20482;-64
2022/02/17 03:52:11;;;;;;;12.63;9.40;;;7.10;99.90;;;;;;6281085;28;20481;-64
2022/02/17 03:55:15;;;;;;;9.63;8.37;;;7.10;99.90;;;;;;6277321;28;20470;-63
2022/02/17 04:01:38;;;;;;;10.87;8.20;;;7.00;99.90;;;;;;6274930;28;20458;-63
2022/02/17 04:04:41;;;;;;;12.10;8.83;;;7.00;99.90;;;;;;6276680;28;20442;-64
2022/02/17 04:07:45;;;;;;;10.30;8.17;;;6.90;99.90;;;;;;6276994;28;20789;-63
2022/02/17 04:10:48;;;;;;;11.00;8.20;;;7.00;99.90;;;;;;6274742;28;21292;-64
2022/02/17 04:13:52;;;;;;;9.43;8.40;;;6.90;99.90;;;;;;6272893;28;20478;-63
2022/02/17 04:16:55;;;;;;;11.83;8.70;;;6.90;99.90;;;;;;6275221;28;20463;-62
2022/02/17 04:19:58;;;;;;;11.70;9.20;;;6.90;99.90;;;;;;6275110;28;20763;-63
2022/02/17 04:23:02;;;;;;;11.80;9.20;;;6.90;99.90;;;;;;6275026;28;20474;-63
2022/02/17 04:26:06;;;;;;;9.50;7.63;;;6.90;99.90;;;;;;6275143;28;20540;-63
2022/02/17 04:29:09;;;;;;;9.30;7.93;;;6.90;99.90;;;;;;6274852;28;20471;-63
2022/02/17 04:32:12;;;;;;;8.90;7.63;;;6.80;99.90;;;;;;6274416;28;20478;-63
2022/02/17 04:35:17;;;;;;;8.87;7.97;;;6.80;99.90;;;;;;6275058;28;20474;-62
2022/02/17 04:38:21;;;;;;;11.00;7.20;;;6.80;99.90;;;;;;6274561;28;20470;-62
2022/02/17 04:44:46;;;;;;;9.67;8.77;;;6.80;99.90;;;;;;6277301;28;20494;-64
2022/02/17 04:47:49;;;;;;;7.97;7.20;;;6.80;99.90;;;;;;6281095;28;20497;-64
2022/02/17 04:50:52;;;;;;;8.57;7.77;;;6.70;99.90;;;;;;6281869;28;20593;-63
2022/02/17 04:53:56;;;;;;;10.43;7.10;;;6.70;99.90;;;;;;6279843;28;20485;-63
2022/02/17 04:57:05;;;;;;;7.40;6.73;;;6.70;99.90;;;;;;6279549;28;20962;-62
2022/02/17 05:00:10;;;;;;;6.47;5.70;;;6.70;99.90;;;;;;6279531;28;20485;-62
2022/02/17 05:03:13;;;;;;;6.97;6.27;;;6.70;99.90;;;;;;6279533;28;20481;-62
2022/02/17 05:06:16;;;;;;;9.13;6.93;;;6.70;99.90;;;;;;6278973;28;20826;-62
2022/02/17 05:09:20;;;;;;;8.50;5.93;;;6.60;99.90;;;;;;6279107;28;20493;-63
2022/02/17 05:12:24;;;;;;;9.20;6.73;;;6.60;99.90;;;;;;6278825;28;20489;-63
2022/02/17 05:15:27;;;;;;;7.87;7.07;;;6.50;99.90;;;;;;6279612;28;20536;-63
2022/02/17 05:18:30;;;;;;;7.70;6.90;;;6.50;99.90;;;;;;6279170;28;20466;-62
2022/02/17 05:21:33;;;;;;;11.47;6.57;;;6.50;99.90;;;;;;6278952;28;20961;-62
2022/02/17 05:24:38;;;;;;;7.23;6.50;;;6.50;99.90;;;;;;6278916;28;20470;-62
2022/02/17 05:27:42;;;;;;;9.10;7.03;;;6.50;99.90;;;;;;6279714;28;20477;-64
2022/02/17 05:30:45;;;;;;;8.03;6.27;;;6.50;99.90;;;;;;6279588;28;20470;-63
2022/02/17 05:33:48;;;;;;;6.63;6.00;;;6.50;99.90;;;;;;6282073;28;20486;-63
2022/02/17 05:36:51;;;;;;;10.03;7.37;;;6.40;99.90;;;;;;6281630;28;20489;-62
2022/02/17 05:39:58;;;;;;;7.70;6.93;;;6.30;99.90;;;;;;6278600;28;20839;-64
2022/02/17 05:43:01;;;;;;;7.90;7.07;;;6.30;99.90;;;;;;6278138;28;20474;-63
2022/02/17 05:46:05;;;;;;;8.13;6.53;;;6.20;99.90;;;;;;6278347;28;20497;-63
2022/02/17 05:49:11;;;;;;;8.43;6.70;;;6.20;99.90;;;;;;6278228;28;20977;-63
2022/02/17 05:52:14;;;;;;;8.13;7.27;;;6.20;99.90;;;;;;6277772;28;20552;-63
2022/02/17 05:55:18;;;;;;;7.43;6.73;;;6.20;99.90;;;;;;6279817;28;20474;-63
2022/02/17 05:58:24;;;;;;;9.07;7.60;;;6.10;99.90;;;;;;6277152;28;20962;-62
2022/02/17 06:01:27;;;;;;;8.63;6.53;;;6.10;99.90;;;;;;6278325;28;20458;-62
2022/02/17 06:04:30;;;;;;;8.40;6.67;;;6.00;99.90;;;;;;6302066;28;20503;-63
2022/02/17 06:07:33;;;;;;;6.97;6.20;;;6.00;99.90;;;;;;6277991;28;20450;-63
2022/02/17 06:10:38;;;;;;;10.33;6.60;;;6.00;99.90;;;;;;6277605;28;20493;-63
2022/02/17 06:13:42;;;;;;;7.53;6.77;;;6.00;99.90;;;;;;6277283;28;20484;-63
2022/02/17 06:16:46;;;;;;;7.37;6.30;;;6.10;99.90;;;;;;6277502;28;20478;-63
2022/02/17 06:19:49;;;;;;;8.90;7.07;;;6.00;99.90;;;;;;6279166;28;20462;-63
2022/02/17 06:22:52;;;;;;;9.93;6.50;;;6.00;99.90;;;;;;6277561;28;20475;-63
2022/02/17 06:25:57;;;;;;;12.97;6.70;;;6.00;99.90;;;;;;6277814;28;20471;-63
2022/02/17 06:29:00;;;;;;;14.67;8.07;;;6.00;99.90;;;;;;6277388;28;20481;-63
2022/02/17 06:32:03;;;;;;;12.23;9.53;;;6.00;99.90;;;;;;6277546;28;20818;-63
2022/02/17 06:35:07;;;;;;;12.23;10.20;;;6.00;99.90;;;;;;6277837;28;20528;-62
2022/02/17 06:38:11;;;;;;;14.60;11.00;;;6.00;99.90;;;;;;6278116;28;20466;-62
2022/02/17 06:41:20;;;;;;;22.03;14.60;;;6.00;99.90;;;;;;6277568;28;20481;-62
2022/02/17 06:44:23;;;;;;;17.57;12.70;;;6.10;99.90;;;;;;6277552;28;20487;-62
2022/02/17 06:47:26;;;;;;;14.60;11.27;;;6.00;99.90;;;;;;6279355;28;20470;-62
2022/02/17 06:50:29;;;;;;;11.40;9.27;;;6.00;99.90;;;;;;6277660;28;20470;-62
2022/02/17 06:53:32;;;;;;;11.77;9.07;;;6.00;99.90;;;;;;6277267;28;20798;-62
2022/02/17 06:56:37;;;;;;;19.73;8.93;;;6.10;99.90;;;;;;6277004;28;20485;-62
2022/02/17 06:59:40;;;;;;;14.20;9.60;;;6.00;99.90;;;;;;6277122;28;20474;-62
2022/02/17 07:02:49;;;;;;;18.97;9.77;;;6.10;99.90;;;;;;6276876;28;20482;-62
2022/02/17 07:05:52;;;;;;;8.43;7.63;;;6.10;99.90;;;;;;6276925;28;20467;-62
2022/02/17 07:08:56;;;;;;;11.63;7.93;;;6.10;99.90;;;;;;6277229;28;20462;-63
2022/02/17 07:12:01;;;;;;;8.43;7.63;;;6.10;99.90;;;;;;6275474;28;20954;-63
2022/02/17 07:15:05;;;;;;;13.27;11.60;;;6.20;99.90;;;;;;6276878;28;20479;-63
2022/02/17 07:18:09;;;;;;;11.77;8.20;;;6.20;99.90;;;;;;6276466;28;20466;-63
2022/02/17 07:21:13;;;;;;;10.70;8.50;;;6.30;99.90;;;;;;6276465;28;20474;-63
2022/02/17 07:24:17;;;;;;;12.87;9.47;;;6.30;99.90;;;;;;6275583;28;20864;-63
2022/02/17 07:27:22;;;;;;;13.40;10.00;;;6.40;99.90;;;;;;6276014;28;20478;-63
2022/02/17 07:30:25;;;;;;;15.53;10.07;;;6.60;99.90;;;;;;6275608;28;21008;-63
2022/02/17 07:33:29;;;;;;;11.97;9.17;;;6.90;99.90;;;;;;6275711;28;20989;-63
2022/02/17 07:36:32;;;;;;;12.37;9.60;;;7.10;99.90;;;;;;6276045;28;20954;-63
2022/02/17 07:39:35;;;;;;;11.63;9.23;;;7.30;99.90;;;;;;6276561;28;20472;-64
2022/02/17 07:42:42;;;;;;;10.83;8.70;;;7.70;99.90;;;;;;6276200;28;20486;-64
2022/02/17 07:45:51;;;;;;;8.83;7.60;;;7.80;99.90;;;;;;6275764;28;20499;-63
2022/02/17 07:48:54;;;;;;;9.93;8.30;;;8.10;99.90;;;;;;6275740;28;20479;-63
2022/02/17 07:51:57;;;;;;;14.07;8.40;;;8.20;99.90;;;;;;6276522;28;20632;-64
2022/02/17 07:55:00;;;;;;;8.90;7.70;;;8.30;99.90;;;;;;6276440;28;20475;-62
2022/02/17 07:58:10;;;;;;;8.73;7.67;;;8.50;99.90;;;;;;6275095;28;20812;-63
2022/02/17 08:01:13;;;;;;;9.93;8.40;;;8.60;99.50;;;;;;6275692;28;20469;-62
2022/02/17 08:04:16;;;;;;;9.27;7.83;;;8.80;99.10;;;;;;6275329;28;20481;-63
2022/02/17 08:07:19;;;;;;;10.13;8.13;;;8.90;98.70;;;;;;6275281;28;20483;-63
2022/02/17 08:10:23;;;;;;;9.97;9.00;;;9.10;98.60;;;;;;6274875;28;20857;-64
2022/02/17 08:13:27;;;;;;;9.63;8.60;;;9.30;98.40;;;;;;6274737;28;20469;-63
2022/02/17 08:16:30;;;;;;;10.27;7.93;;;9.50;97.80;;;;;;6275182;28;20456;-62
2022/02/17 08:19:35;;;;;;;8.87;8.03;;;9.80;97.40;;;;;;6275262;28;20450;-63
2022/02/17 08:22:38;;;;;;;10.73;8.80;;;10.10;96.40;;;;;;6276477;28;20971;-63
2022/02/17 08:25:42;;;;;;;9.17;7.50;;;10.30;95.70;;;;;;6274879;28;20450;-63
2022/02/17 08:28:48;;;;;;;11.73;7.87;;;10.70;95.30;;;;;;6275517;28;20453;-63
2022/02/17 08:31:51;;;;;;;13.37;8.17;;;11.20;94.60;;;;;;6277251;28;20469;-64
2022/02/17 08:34:56;;;;;;;13.60;7.83;;;11.50;93.20;;;;;;6275269;28;20471;-63
2022/02/17 08:38:00;;;;;;;13.40;8.43;;;11.80;92.70;;;;;;6275400;28;20486;-63
2022/02/17 08:41:03;;;;;;;12.17;9.87;;;12.00;91.60;;;;;;6275284;28;20456;-63
2022/02/17 08:44:08;;;;;;;13.43;9.73;;;12.10;91.10;;;;;;6274669;28;20492;-63
2022/02/17 08:47:13;;;;;;;14.97;10.37;;;12.30;90.40;;;;;;6275052;28;20623;-63
2022/02/17 08:50:16;;;;;;;13.90;10.33;;;12.40;90.30;;;;;;6274382;28;20976;-63
2022/02/17 08:53:19;;;;;;;12.97;10.30;;;12.70;89.20;;;;;;6275027;28;20485;-63
2022/02/17 08:56:28;;;;;;;15.17;9.77;;;13.10;87.80;;;;;;6274910;28;20477;-63
2022/02/17 08:59:33;;;;;;;11.33;9.73;;;13.60;85.30;;;;;;6274824;28;21007;-64
2022/02/17 09:02:36;;;;;;;12.57;9.90;;;13.80;83.30;;;;;;6277458;28;20500;-64
2022/02/17 09:05:39;;;;;;;10.53;9.33;;;14.80;83.10;;;;;;6274881;28;20482;-63
2022/02/17 09:09:03;;;;;;;16.03;9.30;;;15.90;74.60;;;;;;6274669;28;20882;-63
2022/02/17 09:12:08;;;;;;;11.90;8.40;;;16.40;70.40;;;;;;6274113;28;20493;-63
2022/02/17 09:15:13;;;;;;;10.20;8.53;;;17.70;64.70;;;;;;6273940;28;20478;-63
2022/02/17 09:18:16;;;;;;;9.20;8.30;;;19.30;60.70;;;;;;6274467;28;20795;-63
2022/02/17 09:21:20;;;;;;;10.87;8.53;;;21.20;54.90;;;;;;6274806;28;20223;-63
2022/02/17 09:24:23;;;;;;;9.53;8.63;;;22.30;49.90;;;;;;6274150;28;20243;-63
2022/02/17 09:27:32;;;;;;;10.33;8.20;;;24.00;45.50;;;;;;6269716;28;20270;-63
2022/02/17 09:30:36;;;;;;;8.87;8.17;;;26.90;39.20;;;;;;6274391;28;20239;-64
2022/02/17 09:33:40;;;;;;;11.97;8.73;;;28.30;34.70;;;;;;6275284;28;20553;-64
2022/02/17 09:36:43;;;;;;;11.47;8.37;;;29.70;31.00;;;;;;6278636;28;20239;-64
2022/02/17 09:39:46;;;;;;;7.43;6.73;;;30.80;28.70;;;;;;6278470;28;20231;-65
2022/02/17 09:42:50;;;;;;;10.23;7.40;;;29.00;28.20;;;;;;6280625;28;20235;-64
2022/02/17 09:45:55;;;;;;;11.33;7.90;;;25.80;30.80;;;;;;6278372;28;20778;-63
2022/02/17 09:49:01;;;;;;;7.87;7.07;;;23.10;34.20;;;;;;6278596;28;20224;-63
2022/02/17 09:52:05;;;;;;;9.37;7.57;;;21.40;37.60;;;;;;6277916;28;20786;-63
2022/02/17 09:55:10;;;;;;;14.83;7.90;;;20.40;40.30;;;;;;6278470;28;20234;-63
2022/02/17 09:58:16;;;;;;;9.97;8.20;;;21.80;40.70;;;;;;6277908;28;20228;-63
2022/02/17 10:01:23;;;;;;;9.70;7.77;;;25.50;36.40;;;;;;6278188;28;20231;-64
2022/02/17 10:04:27;;;;;;;11.10;9.00;;;29.40;30.70;;;;;;6277857;28;20219;-63
2022/02/17 10:07:32;;;;;;;9.70;7.67;;;31.00;28.20;;;;;;6278714;28;20257;-64
2022/02/17 10:10:41;;;;;;;9.20;7.28;;;33.00;26.00;;;;;;6278369;28;20203;-63
2022/02/17 10:13:59;;;;;;;8.65;7.70;;;35.50;24.50;;;;;;6277707;28;20235;-64
2022/02/17 10:17:06;;;;;;;6.10;5.50;;;37.40;22.10;;;;;;6277846;28;20231;-64
2022/02/17 10:20:09;;;;;;;8.15;6.00;;;38.90;20.30;;;;;;6278527;28;20238;-64
2022/02/17 10:23:12;;;;;;;5.43;5.03;;;40.20;19.10;;;;;;6282298;28;20246;-64
2022/02/17 10:26:18;;;;;;;4.82;4.38;;;41.30;18.00;;;;;;6280545;28;20234;-64
2022/02/17 10:29:21;;;;;;;5.57;5.07;;;42.20;17.40;;;;;;6269029;28;20230;-64
2022/02/17 10:32:26;;;;;;;4.70;4.30;;;43.20;16.60;;;;;;6277504;28;20247;-64
2022/02/17 10:35:29;;;;;;;5.03;4.63;;;44.10;15.90;;;;;;6277605;28;20239;-64
2022/02/17 10:38:32;;;;;;;5.63;4.85;;;44.50;15.40;;;;;;6277449;28;20235;-64
2022/02/17 10:41:47;;;;;;;5.75;4.97;;;44.40;15.20;;;;;;6277258;28;20265;-64
2022/02/17 10:44:50;;;;;;;5.75;5.15;;;44.50;15.10;;;;;;6276677;28;20659;-65
2022/02/17 10:48:10;;;;;;;5.63;5.13;;;45.10;15.10;;;;;;6277936;28;20241;-63
2022/02/17 10:51:15;;;;;;;5.15;4.75;;;45.80;14.50;;;;;;6276960;28;20246;-63
2022/02/17 10:54:21;;;;;;;5.00;4.60;;;45.00;14.50;;;;;;6277071;28;20281;-63
2022/02/17 10:57:28;;;;;;;6.43;5.82;;;44.20;14.90;;;;;;6277055;28;20242;-63
2022/02/17 11:00:31;;;;;;;8.32;5.38;;;43.70;14.80;;;;;;6276930;28;20575;-64
2022/02/17 11:03:38;;;;;;;5.75;5.35;;;42.40;15.50;;;;;;6277980;28;20331;-64
2022/02/17 11:06:44;;;;;;;9.18;5.03;;;42.00;15.80;;;;;;6279344;28;20231;-64
2022/02/17 11:09:47;;;;;;;5.97;5.38;;;40.50;16.50;;;;;;6276967;28;20241;-63
2022/02/17 11:12:51;;;;;;;5.20;4.65;;;38.30;17.60;;;;;;6276423;28;20239;-64
2022/02/17 11:15:58;;;;;;;5.25;4.82;;;37.70;18.40;;;;;;6277298;28;20231;-64
2022/02/17 11:19:02;;;;;;;6.20;5.13;;;37.60;18.70;;;;;;6276912;28;20542;-64
2022/02/17 11:22:06;;;;;;;5.97;5.38;;;37.70;18.50;;;;;;6276663;28;20227;-63
2022/02/17 11:25:12;;;;;;;5.93;5.50;;;37.80;18.90;;;;;;6276702;28;20671;-63
2022/02/17 11:28:17;;;;;;;6.78;5.88;;;40.10;18.10;;;;;;6276394;28;20227;-63
2022/02/17 11:31:21;;;;;;;6.00;5.22;;;42.10;17.00;;;;;;6275771;28;20715;-63
2022/02/17 11:34:37;;;;;;;5.88;5.47;;;44.00;15.90;;;;;;6275828;28;20223;-64
2022/02/17 11:37:47;;;;;;;6.18;5.63;;;45.40;15.10;;;;;;6278084;28;20257;-64
2022/02/17 11:41:08;;;;;;;6.85;5.88;;;46.40;14.60;;;;;;6297541;28;20534;-64
2022/02/17 11:44:16;;;;;;;5.85;5.28;;;47.00;14.40;;;;;;6276251;28;20691;-64
2022/02/17 11:47:23;;;;;;;6.28;5.68;;;45.40;14.10;;;;;;6277481;28;20223;-63
2022/02/17 11:50:36;;;;;;;5.97;5.47;;;43.80;15.60;;;;;;6276048;28;20713;-64
2022/02/17 11:53:41;;;;;;;10.20;5.82;;;44.40;15.20;;;;;;6276193;28;20243;-65
2022/02/17 11:56:47;;;;;;;6.30;5.10;;;45.90;14.70;;;;;;6275350;28;20231;-64
2022/02/17 11:59:50;;;;;;;5.38;4.97;;;46.20;14.40;;;;;;6275701;28;20254;-64
2022/02/17 12:02:55;;;;;;;5.15;4.50;;;46.40;14.20;;;;;;6275437;28;20602;-65
2022/02/17 12:06:31;;;;;;;4.25;3.95;;;47.20;13.90;;;;;;6275985;28;20250;-64
2022/02/17 12:09:41;;;;;;;5.57;3.85;;;48.40;13.60;;;;;;6275315;28;20679;-64
2022/02/17 12:13:05;;;;;;;4.75;3.45;;;48.60;13.20;;;;;;6275114;28;20686;-64
2022/02/17 12:16:08;;;;;;;4.28;3.97;;;48.30;13.30;;;;;;6275657;28;20248;-64
2022/02/17 12:19:12;;;;;;;3.92;3.50;;;47.50;13.50;;;;;;6275229;28;20721;-64
2022/02/17 12:22:17;;;;;;;3.63;2.80;;;48.30;13.40;;;;;;6274545;28;20223;-64
2022/02/17 12:25:25;;;;;;;2.63;2.42;;;47.50;13.50;;;;;;6274658;28;20242;-64
2022/02/17 12:28:35;;;;;;;3.58;2.70;;;47.70;13.40;;;;;;6276714;28;20195;-64
2022/02/17 12:31:38;;;;;;;2.10;1.90;;;47.80;13.10;;;;;;6274820;28;20227;-64
2022/02/17 12:34:42;;;;;;;2.63;2.25;;;47.70;13.40;;;;;;6269856;28;20289;-65
2022/02/17 12:38:00;;;;;;;5.82;2.45;;;48.10;13.00;;;;;;6274788;28;20203;-65
2022/02/17 12:41:08;;;;;;;2.30;1.90;;;48.40;13.00;;;;;;6274778;28;20679;-65
2022/02/17 12:44:11;;;;;;;3.10;1.63;;;48.70;12.50;;;;;;6274593;28;20243;-64
2022/02/17 12:47:15;;;;;;;1.77;1.67;;;48.10;12.50;;;;;;6274928;28;20235;-63
2022/02/17 12:50:20;;;;;;;2.50;1.80;;;46.80;13.00;;;;;;6274821;28;20234;-64
2022/02/17 12:53:25;;;;;;;2.60;1.88;;;45.30;13.50;;;;;;6274513;28;20237;-63
2022/02/17 12:56:30;;;;;;;1.92;1.60;;;45.80;13.70;;;;;;6274754;28;20235;-64
2022/02/17 12:59:33;;;;;;;1.83;1.50;;;45.10;13.70;;;;;;6274860;28;20238;-63
2022/02/17 13:02:40;;;;;;;2.63;2.00;;;45.70;13.70;;;;;;6274543;28;20701;-63
2022/02/17 13:09:18;;;;;;;1.77;1.60;;;47.10;12.70;;;;;;6278904;28;20238;-64
2022/02/17 13:12:22;;;;;;;3.67;2.17;;;46.70;12.80;;;;;;6279964;28;20235;-64
2022/02/17 13:15:31;;;;;;;4.10;1.98;;;46.70;13.10;;;;;;6279681;28;20227;-64
2022/02/17 13:18:35;;;;;;;3.28;1.75;;;48.10;12.70;;;;;;6279400;28;20261;-64
2022/02/17 13:21:38;;;;;;;4.55;1.73;;;49.20;12.30;;;;;;6278783;28;20705;-64
2022/02/17 13:24:44;;;;;;;1.90;1.40;;;48.80;11.70;;;;;;6278939;28;20234;-64
2022/02/17 13:27:51;;;;;;;4.40;1.70;;;47.00;12.60;;;;;;6278793;28;20227;-64
2022/02/17 13:30:54;;;;;;;2.38;1.70;;;46.70;12.40;;;;;;6278880;28;20231;-64
2022/02/17 13:34:12;;;;;;;3.08;1.13;;;45.20;13.10;;;;;;6278401;28;20235;-63
2022/02/17 13:37:16;;;;;;;2.30;1.77;;;45.10;13.30;;;;;;6278919;28;20235;-64
2022/02/17 13:40:22;;;;;;;2.72;1.92;;;44.00;13.50;;;;;;6279739;28;20238;-64
2022/02/17 13:43:26;;;;;;;2.20;1.80;;;45.10;13.20;;;;;;6279878;28;20245;-64
2022/02/17 13:46:29;;;;;;;5.00;1.90;;;45.40;13.10;;;;;;6280181;28;20227;-64
2022/02/17 13:49:32;;;;;;;3.20;0.50;;;45.30;12.00;;;;;;6281094;28;20207;-64
2022/02/17 13:52:35;;;;;;;2.05;0.45;;;43.40;9.70;;;;;;6280627;28;20231;-64
2022/02/17 13:55:57;;;;;;;1.50;0.90;;;42.20;9.70;;;;;;6280253;28;20268;-64
2022/02/17 13:59:02;;;;;;;1.40;0.40;;;40.00;10.70;;;;;;6279306;28;20231;-64
2022/02/17 14:02:05;;;;;;;1.00;0.73;;;38.60;11.30;;;;;;6280577;28;20242;-64
2022/02/17 14:05:09;;;;;;;2.75;0.77;;;38.80;11.30;;;;;;6279998;28;20234;-65
2022/02/17 14:08:13;;;;;;;2.97;0.52;;;38.20;11.30;;;;;;6279627;28;20231;-65
2022/02/17 14:11:20;;;;;;;5.15;0.73;;;36.40;12.00;;;;;;6279020;28;20234;-65
2022/02/17 14:14:24;;;;;;;1.05;0.40;;;33.50;14.00;;;;;;6278215;28;20612;-64
2022/02/17 14:17:30;;;;;;;1.40;0.32;;;31.80;15.50;;;;;;6278498;28;20238;-65
2022/02/17 14:20:34;;;;;;;2.20;0.45;;;30.40;16.80;;;;;;6277568;28;20235;-65
2022/02/17 14:23:38;;;;;;;1.57;0.40;;;29.00;17.80;;;;;;6278258;28;20238;-65
2022/02/17 14:26:42;;;;;;;3.13;1.33;;;27.70;18.80;;;;;;6278019;28;20231;-65
2022/02/17 14:29:45;;;;;;;2.87;1.40;;;26.60;19.10;;;;;;6278668;28;20249;-64
2022/02/17 14:32:49;;;;;;;2.87;0.40;;;25.70;20.20;;;;;;6278816;28;20242;-64
2022/02/17 14:35:52;;;;;;;2.60;0.50;;;24.90;19.60;;;;;;6279975;28;20227;-64
2022/02/17 14:38:55;;;;;;;3.33;0.40;;;24.40;20.10;;;;;;6280723;28;20227;-64
2022/02/17 14:42:00;;;;;;;3.50;1.03;;;23.80;22.00;;;;;;6280741;28;20236;-64
2022/02/17 14:45:03;;;;;;;1.77;0.40;;;23.00;22.00;;;;;;6279334;28;20736;-64
2022/02/17 14:48:08;;;;;;;2.43;0.60;;;22.60;22.80;;;;;;6280126;28;20250;-64
2022/02/17 14:51:11;;;;;;;0.57;0.33;;;22.30;24.10;;;;;;6279456;28;20224;-64
2022/02/17 14:54:14;;;;;;;1.27;0.30;;;22.10;25.50;;;;;;6282667;28;20232;-64
2022/02/17 14:57:19;;;;;;;0.60;0.30;;;21.90;25.90;;;;;;6279317;28;20236;-64
2022/02/17 15:00:22;;;;;;;0.50;0.30;;;21.60;26.00;;;;;;6280092;28;20231;-64
2022/02/17 15:03:28;;;;;;;2.70;0.40;;;21.40;26.70;;;;;;6278885;28;20377;-64
2022/02/17 15:06:31;;;;;;;0.50;0.20;;;21.30;26.80;;;;;;6278973;28;20565;-64
2022/02/17 15:09:34;;;;;;;1.10;0.50;;;21.10;27.90;;;;;;6278505;28;20686;-63
2022/02/17 15:12:38;;;;;;;0.50;0.30;;;21.00;28.50;;;;;;6278369;28;20577;-63
2022/02/17 15:15:42;;;;;;;0.80;0.30;;;20.80;28.50;;;;;;6279453;28;20239;-63
2022/02/17 15:18:45;;;;;;;1.50;0.30;;;20.70;28.90;;;;;;6281310;28;20236;-63
2022/02/17 15:21:48;;;;;;;2.07;0.60;;;20.60;29.50;;;;;;6279736;28;20259;-63
2022/02/17 15:24:51;;;;;;;1.43;0.20;;;20.50;29.80;;;;;;6279634;28;20223;-64
2022/02/17 15:27:56;;;;;;;0.50;0.30;;;20.30;30.10;;;;;;6280315;28;20235;-63
2022/02/17 15:30:59;;;;;;;0.70;0.30;;;20.20;30.40;;;;;;6278472;28;20243;-64
2022/02/17 15:34:04;;;;;;;1.03;0.40;;;20.00;30.90;;;;;;6278774;28;20224;-63
2022/02/17 15:37:07;;;;;;;0.53;0.37;;;19.90;31.00;;;;;;6278959;28;20246;-64
2022/02/17 15:40:12;;;;;;;0.60;0.37;;;19.90;31.30;;;;;;6278936;28;20231;-64
2022/02/17 15:43:17;;;;;;;1.27;0.30;;;19.70;31.80;;;;;;6278618;28;20270;-63
2022/02/17 15:46:20;;;;;;;6.00;0.50;;;19.50;32.30;;;;;;6278147;28;20234;-63
2022/02/17 15:49:23;;;;;;;0.90;0.40;;;19.30;33.10;;;;;;6277183;28;20302;-64
2022/02/17 15:52:27;;;;;;;0.90;0.43;;;18.90;33.70;;;;;;6273500;28;20242;-63
2022/02/17 15:55:30;;;;;;;0.60;0.40;;;18.70;34.70;;;;;;6275625;28;20562;-64
2022/02/17 15:58:34;;;;;;;0.67;0.30;;;18.60;35.10;;;;;;6300593;28;20494;-63
2022/02/17 16:01:37;;;;;;;0.60;0.50;;;18.40;35.50;;;;;;6276928;28;20234;-64
2022/02/17 16:04:59;;;;;;;1.40;0.43;;;18.30;35.90;;;;;;6276520;28;20462;-63
2022/02/17 16:08:02;;;;;;;1.80;0.63;;;18.10;36.40;;;;;;6276974;28;20247;-63
2022/02/17 16:11:05;;;;;;;0.90;0.70;;;18.00;36.60;;;;;;6276640;28;20231;-64
2022/02/17 16:14:14;;;;;;;3.07;0.67;;;18.00;37.40;;;;;;6275696;28;20235;-64